sensor_id;sensor_type;location;lat;lon;timestamp;P1;durP1;ratioP1;P2;durP2;ratioP2
7338;SDS011;33747;49.524;8.390;2023-09-19T00:01:34;1.85;;;0.90;;
7338;SDS011;33747;49.524;8.390;2023-09-19T00:03:59;4.90;;;1.20;;
7338;SDS011;33747;49.524;8.390;2023-09-19T00:06:28;4.13;;;1.38;;
7338;SDS011;33747;49.524;8.390;2023-09-19T00:08:56;5.32;;;1.30;;
7338;SDS011;33747;49.524;8.390;2023-09-19T00:11:23;2.55;;;1.20;;
7338;SDS011;33747;49.524;8.390;2023-09-19T00:13:51;6.07;;;1.65;;
7338;SDS011;33747;49.524;8.390;2023-09-19T00:16:16;1.60;;;0.90;;
7338;SDS011;33747;49.524;8.390;2023-09-19T00:18:44;3.28;;;1.00;;
7338;SDS011;33747;49.524;8.390;2023-09-19T00:21:10;2.15;;;1.25;;
7338;SDS011;33747;49.524;8.390;2023-09-19T00:23:35;2.85;;;1.38;;
7338;SDS011;33747;49.524;8.390;2023-09-19T00:26:00;2.60;;;1.10;;
7338;SDS011;33747;49.524;8.390;2023-09-19T00:28:26;1.88;;;1.50;;
7338;SDS011;33747;49.524;8.390;2023-09-19T00:30:52;1.35;;;1.08;;
7338;SDS011;33747;49.524;8.390;2023-09-19T00:33:20;4.60;;;1.25;;
7338;SDS011;33747;49.524;8.390;2023-09-19T00:35:49;2.08;;;1.00;;
7338;SDS011;33747;49.524;8.390;2023-09-19T00:38:15;4.13;;;1.52;;
7338;SDS011;33747;49.524;8.390;2023-09-19T00:40:45;7.75;;;1.10;;
7338;SDS011;33747;49.524;8.390;2023-09-19T00:43:11;2.40;;;1.08;;
7338;SDS011;33747;49.524;8.390;2023-09-19T00:45:36;10.48;;;1.55;;
7338;SDS011;33747;49.524;8.390;2023-09-19T00:48:03;3.90;;;1.00;;
7338;SDS011;33747;49.524;8.390;2023-09-19T00:53:02;4.60;;;1.50;;
7338;SDS011;33747;49.524;8.390;2023-09-19T00:55:33;2.33;;;1.45;;
7338;SDS011;33747;49.524;8.390;2023-09-19T00:57:59;5.28;;;1.50;;
7338;SDS011;33747;49.524;8.390;2023-09-19T01:00:24;3.00;;;1.50;;
7338;SDS011;33747;49.524;8.390;2023-09-19T01:02:50;1.52;;;1.00;;
7338;SDS011;33747;49.524;8.390;2023-09-19T01:05:15;2.60;;;1.27;;
7338;SDS011;33747;49.524;8.390;2023-09-19T01:07:41;4.20;;;1.33;;
7338;SDS011;33747;49.524;8.390;2023-09-19T01:10:07;1.73;;;1.20;;
7338;SDS011;33747;49.524;8.390;2023-09-19T01:15:51;5.10;;;1.95;;
7338;SDS011;33747;49.524;8.390;2023-09-19T01:32:06;3.88;;;1.50;;
7338;SDS011;33747;49.524;8.390;2023-09-19T01:34:54;2.97;;;1.38;;
7338;SDS011;33747;49.524;8.390;2023-09-19T01:37:22;1.52;;;1.25;;
7338;SDS011;33747;49.524;8.390;2023-09-19T01:39:53;4.40;;;1.33;;
7338;SDS011;33747;49.524;8.390;2023-09-19T01:42:49;1.83;;;1.42;;
7338;SDS011;33747;49.524;8.390;2023-09-19T01:45:26;3.00;;;1.23;;
7338;SDS011;33747;49.524;8.390;2023-09-19T01:48:35;6.50;;;1.50;;
7338;SDS011;33747;49.524;8.390;2023-09-19T01:51:06;2.35;;;1.40;;
7338;SDS011;33747;49.524;8.390;2023-09-19T01:53:50;3.63;;;1.13;;
7338;SDS011;33747;49.524;8.390;2023-09-19T01:56:23;2.47;;;1.23;;
7338;SDS011;33747;49.524;8.390;2023-09-19T02:01:19;2.53;;;1.42;;
7338;SDS011;33747;49.524;8.390;2023-09-19T02:03:47;4.03;;;1.48;;
7338;SDS011;33747;49.524;8.390;2023-09-19T02:06:13;2.10;;;1.20;;
7338;SDS011;33747;49.524;8.390;2023-09-19T02:08:43;1.55;;;1.13;;
7338;SDS011;33747;49.524;8.390;2023-09-19T02:11:09;6.88;;;1.25;;
7338;SDS011;33747;49.524;8.390;2023-09-19T02:13:35;4.10;;;1.20;;
7338;SDS011;33747;49.524;8.390;2023-09-19T02:16:01;3.45;;;1.30;;
7338;SDS011;33747;49.524;8.390;2023-09-19T02:18:29;3.88;;;1.30;;
7338;SDS011;33747;49.524;8.390;2023-09-19T02:20:55;1.42;;;1.20;;
7338;SDS011;33747;49.524;8.390;2023-09-19T02:23:21;3.00;;;1.27;;
7338;SDS011;33747;49.524;8.390;2023-09-19T02:25:56;3.28;;;1.63;;
7338;SDS011;33747;49.524;8.390;2023-09-19T02:28:28;3.78;;;1.17;;
7338;SDS011;33747;49.524;8.390;2023-09-19T02:30:57;3.85;;;1.35;;
7338;SDS011;33747;49.524;8.390;2023-09-19T02:33:23;3.00;;;1.23;;
7338;SDS011;33747;49.524;8.390;2023-09-19T02:35:48;3.15;;;1.33;;
7338;SDS011;33747;49.524;8.390;2023-09-19T02:38:13;1.67;;;1.20;;
7338;SDS011;33747;49.524;8.390;2023-09-19T02:40:43;1.40;;;1.30;;
7338;SDS011;33747;49.524;8.390;2023-09-19T02:43:08;3.50;;;1.42;;
7338;SDS011;33747;49.524;8.390;2023-09-19T02:45:34;4.82;;;1.38;;
7338;SDS011;33747;49.524;8.390;2023-09-19T02:47:59;5.32;;;1.75;;
7338;SDS011;33747;49.524;8.390;2023-09-19T02:50:25;1.73;;;1.40;;
7338;SDS011;33747;49.524;8.390;2023-09-19T02:52:50;3.22;;;1.20;;
7338;SDS011;33747;49.524;8.390;2023-09-19T02:55:16;3.13;;;1.58;;
7338;SDS011;33747;49.524;8.390;2023-09-19T02:57:53;7.90;;;1.52;;
7338;SDS011;33747;49.524;8.390;2023-09-19T03:00:22;1.30;;;1.10;;
7338;SDS011;33747;49.524;8.390;2023-09-19T03:02:52;2.67;;;1.33;;
7338;SDS011;33747;49.524;8.390;2023-09-19T03:05:18;2.38;;;1.30;;
7338;SDS011;33747;49.524;8.390;2023-09-19T03:07:46;4.75;;;1.80;;
7338;SDS011;33747;49.524;8.390;2023-09-19T03:10:12;2.63;;;1.75;;
7338;SDS011;33747;49.524;8.390;2023-09-19T03:12:38;3.75;;;1.88;;
7338;SDS011;33747;49.524;8.390;2023-09-19T03:15:05;3.50;;;1.80;;
7338;SDS011;33747;49.524;8.390;2023-09-19T03:17:31;2.35;;;1.90;;
7338;SDS011;33747;49.524;8.390;2023-09-19T03:19:57;2.47;;;1.98;;
7338;SDS011;33747;49.524;8.390;2023-09-19T03:22:23;3.15;;;2.20;;
7338;SDS011;33747;49.524;8.390;2023-09-19T03:24:49;2.47;;;2.15;;
7338;SDS011;33747;49.524;8.390;2023-09-19T03:27:15;3.83;;;2.42;;
7338;SDS011;33747;49.524;8.390;2023-09-19T03:29:41;4.32;;;2.70;;
7338;SDS011;33747;49.524;8.390;2023-09-19T03:32:07;4.50;;;2.50;;
7338;SDS011;33747;49.524;8.390;2023-09-19T03:34:35;9.93;;;3.38;;
7338;SDS011;33747;49.524;8.390;2023-09-19T03:37:07;3.63;;;1.98;;
7338;SDS011;33747;49.524;8.390;2023-09-19T03:39:33;2.13;;;2.00;;
7338;SDS011;33747;49.524;8.390;2023-09-19T03:41:58;5.65;;;2.88;;
7338;SDS011;33747;49.524;8.390;2023-09-19T03:44:24;5.05;;;2.30;;
7338;SDS011;33747;49.524;8.390;2023-09-19T03:46:49;3.40;;;2.53;;
7338;SDS011;33747;49.524;8.390;2023-09-19T03:49:15;8.32;;;2.80;;
7338;SDS011;33747;49.524;8.390;2023-09-19T03:51:40;3.75;;;2.75;;
7338;SDS011;33747;49.524;8.390;2023-09-19T03:54:06;2.72;;;2.08;;
7338;SDS011;33747;49.524;8.390;2023-09-19T03:56:32;3.20;;;2.40;;
7338;SDS011;33747;49.524;8.390;2023-09-19T03:58:57;5.28;;;2.60;;
7338;SDS011;33747;49.524;8.390;2023-09-19T04:01:23;5.10;;;2.55;;
7338;SDS011;33747;49.524;8.390;2023-09-19T04:03:48;10.48;;;2.92;;
7338;SDS011;33747;49.524;8.390;2023-09-19T04:06:15;2.28;;;1.88;;
7338;SDS011;33747;49.524;8.390;2023-09-19T04:08:41;7.35;;;2.80;;
7338;SDS011;33747;49.524;8.390;2023-09-19T04:11:07;4.15;;;2.20;;
7338;SDS011;33747;49.524;8.390;2023-09-19T04:13:33;4.93;;;2.60;;
7338;SDS011;33747;49.524;8.390;2023-09-19T04:15:58;4.72;;;2.53;;
7338;SDS011;33747;49.524;8.390;2023-09-19T04:18:23;4.25;;;2.30;;
7338;SDS011;33747;49.524;8.390;2023-09-19T04:20:49;2.72;;;2.25;;
7338;SDS011;33747;49.524;8.390;2023-09-19T04:23:15;4.60;;;2.45;;
7338;SDS011;33747;49.524;8.390;2023-09-19T04:25:40;6.50;;;2.33;;
7338;SDS011;33747;49.524;8.390;2023-09-19T04:28:06;5.78;;;2.58;;
7338;SDS011;33747;49.524;8.390;2023-09-19T04:30:31;5.07;;;2.47;;
7338;SDS011;33747;49.524;8.390;2023-09-19T04:32:57;8.60;;;2.30;;
7338;SDS011;33747;49.524;8.390;2023-09-19T04:35:22;6.88;;;2.70;;
7338;SDS011;33747;49.524;8.390;2023-09-19T04:37:47;5.00;;;2.67;;
7338;SDS011;33747;49.524;8.390;2023-09-19T04:40:13;3.20;;;2.10;;
7338;SDS011;33747;49.524;8.390;2023-09-19T04:42:42;3.83;;;2.15;;
7338;SDS011;33747;49.524;8.390;2023-09-19T04:45:08;5.40;;;2.38;;
7338;SDS011;33747;49.524;8.390;2023-09-19T04:47:35;3.83;;;2.20;;
7338;SDS011;33747;49.524;8.390;2023-09-19T04:50:01;6.35;;;2.30;;
7338;SDS011;33747;49.524;8.390;2023-09-19T04:52:26;2.00;;;1.70;;
7338;SDS011;33747;49.524;8.390;2023-09-19T04:54:51;9.35;;;2.97;;
7338;SDS011;33747;49.524;8.390;2023-09-19T04:57:17;12.98;;;4.47;;
7338;SDS011;33747;49.524;8.390;2023-09-19T04:59:42;10.40;;;2.55;;
7338;SDS011;33747;49.524;8.390;2023-09-19T05:02:08;4.55;;;2.00;;
7338;SDS011;33747;49.524;8.390;2023-09-19T05:04:33;7.10;;;2.70;;
7338;SDS011;33747;49.524;8.390;2023-09-19T05:06:59;4.55;;;2.40;;
7338;SDS011;33747;49.524;8.390;2023-09-19T05:09:26;6.90;;;2.50;;
7338;SDS011;33747;49.524;8.390;2023-09-19T05:11:51;6.90;;;2.58;;
7338;SDS011;33747;49.524;8.390;2023-09-19T05:14:17;5.53;;;1.90;;
7338;SDS011;33747;49.524;8.390;2023-09-19T05:16:44;4.30;;;2.03;;
7338;SDS011;33747;49.524;8.390;2023-09-19T05:19:09;11.68;;;2.78;;
7338;SDS011;33747;49.524;8.390;2023-09-19T05:21:36;11.63;;;2.30;;
7338;SDS011;33747;49.524;8.390;2023-09-19T05:24:03;5.53;;;2.15;;
7338;SDS011;33747;49.524;8.390;2023-09-19T05:26:31;5.32;;;2.00;;
7338;SDS011;33747;49.524;8.390;2023-09-19T05:28:56;6.13;;;2.20;;
7338;SDS011;33747;49.524;8.390;2023-09-19T05:31:22;6.47;;;2.53;;
7338;SDS011;33747;49.524;8.390;2023-09-19T05:33:48;7.38;;;1.98;;
7338;SDS011;33747;49.524;8.390;2023-09-19T05:36:14;8.38;;;2.00;;
7338;SDS011;33747;49.524;8.390;2023-09-19T05:38:41;7.05;;;2.08;;
7338;SDS011;33747;49.524;8.390;2023-09-19T05:41:07;5.43;;;1.88;;
7338;SDS011;33747;49.524;8.390;2023-09-19T05:43:34;6.30;;;2.17;;
7338;SDS011;33747;49.524;8.390;2023-09-19T05:46:02;7.88;;;1.98;;
7338;SDS011;33747;49.524;8.390;2023-09-19T05:48:28;6.13;;;1.90;;
7338;SDS011;33747;49.524;8.390;2023-09-19T05:50:53;6.40;;;2.42;;
7338;SDS011;33747;49.524;8.390;2023-09-19T05:53:18;7.47;;;2.13;;
7338;SDS011;33747;49.524;8.390;2023-09-19T05:55:44;6.78;;;1.95;;
7338;SDS011;33747;49.524;8.390;2023-09-19T05:58:10;9.73;;;2.33;;
7338;SDS011;33747;49.524;8.390;2023-09-19T06:00:38;6.50;;;1.58;;
7338;SDS011;33747;49.524;8.390;2023-09-19T06:03:06;8.80;;;2.33;;
7338;SDS011;33747;49.524;8.390;2023-09-19T06:05:32;6.97;;;1.60;;
7338;SDS011;33747;49.524;8.390;2023-09-19T06:07:57;4.57;;;2.22;;
7338;SDS011;33747;49.524;8.390;2023-09-19T06:10:25;10.18;;;2.53;;
7338;SDS011;33747;49.524;8.390;2023-09-19T06:12:53;8.30;;;1.83;;
7338;SDS011;33747;49.524;8.390;2023-09-19T06:15:20;11.20;;;2.80;;
7338;SDS011;33747;49.524;8.390;2023-09-19T06:17:55;10.73;;;2.00;;
7338;SDS011;33747;49.524;8.390;2023-09-19T06:20:21;4.18;;;1.52;;
7338;SDS011;33747;49.524;8.390;2023-09-19T06:22:50;5.50;;;1.55;;
7338;SDS011;33747;49.524;8.390;2023-09-19T06:25:16;4.88;;;1.75;;
7338;SDS011;33747;49.524;8.390;2023-09-19T06:27:45;7.60;;;2.22;;
7338;SDS011;33747;49.524;8.390;2023-09-19T06:30:11;7.10;;;1.90;;
7338;SDS011;33747;49.524;8.390;2023-09-19T06:32:36;5.22;;;1.95;;
7338;SDS011;33747;49.524;8.390;2023-09-19T06:35:02;5.30;;;1.85;;
7338;SDS011;33747;49.524;8.390;2023-09-19T06:37:33;4.60;;;1.80;;
7338;SDS011;33747;49.524;8.390;2023-09-19T06:39:59;6.93;;;2.13;;
7338;SDS011;33747;49.524;8.390;2023-09-19T06:42:25;6.07;;;1.80;;
7338;SDS011;33747;49.524;8.390;2023-09-19T06:44:50;3.92;;;1.65;;
7338;SDS011;33747;49.524;8.390;2023-09-19T06:47:16;5.60;;;1.98;;
7338;SDS011;33747;49.524;8.390;2023-09-19T06:49:42;6.20;;;1.52;;
7338;SDS011;33747;49.524;8.390;2023-09-19T06:52:10;5.65;;;1.80;;
7338;SDS011;33747;49.524;8.390;2023-09-19T06:54:36;8.23;;;1.70;;
7338;SDS011;33747;49.524;8.390;2023-09-19T06:57:02;4.97;;;1.90;;
7338;SDS011;33747;49.524;8.390;2023-09-19T06:59:28;5.78;;;1.95;;
7338;SDS011;33747;49.524;8.390;2023-09-19T07:01:53;7.65;;;2.00;;
7338;SDS011;33747;49.524;8.390;2023-09-19T07:04:19;7.75;;;1.63;;
7338;SDS011;33747;49.524;8.390;2023-09-19T07:06:44;5.28;;;1.30;;
7338;SDS011;33747;49.524;8.390;2023-09-19T07:09:14;2.83;;;1.60;;
7338;SDS011;33747;49.524;8.390;2023-09-19T07:11:40;3.58;;;1.65;;
7338;SDS011;33747;49.524;8.390;2023-09-19T07:14:05;3.60;;;1.42;;
7338;SDS011;33747;49.524;8.390;2023-09-19T07:16:31;2.55;;;1.30;;
7338;SDS011;33747;49.524;8.390;2023-09-19T07:18:56;4.15;;;1.67;;
7338;SDS011;33747;49.524;8.390;2023-09-19T07:21:22;7.13;;;2.05;;
7338;SDS011;33747;49.524;8.390;2023-09-19T07:23:48;12.55;;;2.10;;
7338;SDS011;33747;49.524;8.390;2023-09-19T07:26:14;5.35;;;1.75;;
7338;SDS011;33747;49.524;8.390;2023-09-19T07:28:40;5.80;;;1.90;;
7338;SDS011;33747;49.524;8.390;2023-09-19T07:31:05;4.22;;;1.80;;
7338;SDS011;33747;49.524;8.390;2023-09-19T07:33:34;6.25;;;1.85;;
7338;SDS011;33747;49.524;8.390;2023-09-19T07:36:01;7.07;;;1.90;;
7338;SDS011;33747;49.524;8.390;2023-09-19T07:38:26;1.92;;;1.77;;
7338;SDS011;33747;49.524;8.390;2023-09-19T07:40:52;5.40;;;2.10;;
7338;SDS011;33747;49.524;8.390;2023-09-19T07:43:17;5.55;;;1.80;;
7338;SDS011;33747;49.524;8.390;2023-09-19T07:45:43;4.72;;;1.65;;
7338;SDS011;33747;49.524;8.390;2023-09-19T07:48:08;4.57;;;1.88;;
7338;SDS011;33747;49.524;8.390;2023-09-19T07:50:39;5.72;;;2.03;;
7338;SDS011;33747;49.524;8.390;2023-09-19T07:53:05;3.92;;;2.00;;
7338;SDS011;33747;49.524;8.390;2023-09-19T07:55:30;4.82;;;1.88;;
7338;SDS011;33747;49.524;8.390;2023-09-19T07:57:56;4.57;;;2.10;;
7338;SDS011;33747;49.524;8.390;2023-09-19T08:00:22;4.70;;;1.77;;
7338;SDS011;33747;49.524;8.390;2023-09-19T08:02:47;6.57;;;1.98;;
7338;SDS011;33747;49.524;8.390;2023-09-19T08:05:13;5.13;;;2.00;;
7338;SDS011;33747;49.524;8.390;2023-09-19T08:07:42;5.45;;;2.22;;
7338;SDS011;33747;49.524;8.390;2023-09-19T08:10:09;3.97;;;1.77;;
7338;SDS011;33747;49.524;8.390;2023-09-19T08:12:41;4.25;;;1.75;;
7338;SDS011;33747;49.524;8.390;2023-09-19T08:15:21;3.28;;;1.98;;
7338;SDS011;33747;49.524;8.390;2023-09-19T08:17:46;3.17;;;2.00;;
7338;SDS011;33747;49.524;8.390;2023-09-19T08:20:13;5.35;;;2.10;;
7338;SDS011;33747;49.524;8.390;2023-09-19T08:22:49;6.15;;;1.98;;
7338;SDS011;33747;49.524;8.390;2023-09-19T08:25:17;8.85;;;2.47;;
7338;SDS011;33747;49.524;8.390;2023-09-19T08:27:43;8.75;;;2.10;;
7338;SDS011;33747;49.524;8.390;2023-09-19T08:30:13;6.78;;;2.17;;
7338;SDS011;33747;49.524;8.390;2023-09-19T08:32:43;7.40;;;2.08;;
7338;SDS011;33747;49.524;8.390;2023-09-19T08:35:09;4.03;;;1.88;;
7338;SDS011;33747;49.524;8.390;2023-09-19T08:37:36;5.97;;;1.83;;
7338;SDS011;33747;49.524;8.390;2023-09-19T08:40:02;3.00;;;1.65;;
7338;SDS011;33747;49.524;8.390;2023-09-19T08:42:27;4.88;;;1.90;;
7338;SDS011;33747;49.524;8.390;2023-09-19T08:44:53;3.90;;;1.83;;
7338;SDS011;33747;49.524;8.390;2023-09-19T08:47:21;2.90;;;1.70;;
7338;SDS011;33747;49.524;8.390;2023-09-19T08:52:32;4.30;;;2.25;;
7338;SDS011;33747;49.524;8.390;2023-09-19T08:54:59;7.28;;;2.17;;
7338;SDS011;33747;49.524;8.390;2023-09-19T08:57:29;6.80;;;2.10;;
7338;SDS011;33747;49.524;8.390;2023-09-19T08:59:59;2.85;;;1.85;;
7338;SDS011;33747;49.524;8.390;2023-09-19T09:02:26;4.05;;;1.80;;
7338;SDS011;33747;49.524;8.390;2023-09-19T09:04:52;3.05;;;1.67;;
7338;SDS011;33747;49.524;8.390;2023-09-19T09:07:19;3.97;;;1.92;;
7338;SDS011;33747;49.524;8.390;2023-09-19T09:09:44;5.30;;;2.03;;
7338;SDS011;33747;49.524;8.390;2023-09-19T09:12:11;3.00;;;1.63;;
7338;SDS011;33747;49.524;8.390;2023-09-19T09:14:38;7.95;;;1.60;;
7338;SDS011;33747;49.524;8.390;2023-09-19T09:17:04;4.40;;;2.10;;
7338;SDS011;33747;49.524;8.390;2023-09-19T09:19:30;7.10;;;1.90;;
7338;SDS011;33747;49.524;8.390;2023-09-19T09:22:05;5.53;;;2.35;;
7338;SDS011;33747;49.524;8.390;2023-09-19T09:24:34;7.07;;;2.13;;
7338;SDS011;33747;49.524;8.390;2023-09-19T09:27:02;5.57;;;1.80;;
7338;SDS011;33747;49.524;8.390;2023-09-19T09:29:48;8.38;;;1.92;;
7338;SDS011;33747;49.524;8.390;2023-09-19T09:32:17;3.95;;;1.77;;
7338;SDS011;33747;49.524;8.390;2023-09-19T09:34:47;9.18;;;2.20;;
7338;SDS011;33747;49.524;8.390;2023-09-19T09:37:15;9.65;;;2.22;;
7338;SDS011;33747;49.524;8.390;2023-09-19T09:39:49;7.45;;;1.80;;
7338;SDS011;33747;49.524;8.390;2023-09-19T09:42:29;5.85;;;2.10;;
7338;SDS011;33747;49.524;8.390;2023-09-19T09:45:12;4.70;;;1.80;;
7338;SDS011;33747;49.524;8.390;2023-09-19T09:47:53;7.97;;;2.30;;
7338;SDS011;33747;49.524;8.390;2023-09-19T09:50:31;9.10;;;1.70;;
7338;SDS011;33747;49.524;8.390;2023-09-19T09:53:28;7.53;;;2.30;;
7338;SDS011;33747;49.524;8.390;2023-09-19T09:56:06;4.40;;;2.13;;
7338;SDS011;33747;49.524;8.390;2023-09-19T09:58:36;5.70;;;2.10;;
7338;SDS011;33747;49.524;8.390;2023-09-19T10:01:05;7.80;;;2.67;;
7338;SDS011;33747;49.524;8.390;2023-09-19T10:06:03;7.28;;;2.90;;
7338;SDS011;33747;49.524;8.390;2023-09-19T10:08:36;3.05;;;1.50;;
7338;SDS011;33747;49.524;8.390;2023-09-19T10:11:11;6.72;;;2.35;;
7338;SDS011;33747;49.524;8.390;2023-09-19T10:13:40;6.30;;;2.15;;
7338;SDS011;33747;49.524;8.390;2023-09-19T10:16:06;7.10;;;1.85;;
7338;SDS011;33747;49.524;8.390;2023-09-19T10:18:35;7.72;;;1.95;;
7338;SDS011;33747;49.524;8.390;2023-09-19T10:21:01;5.22;;;1.98;;
7338;SDS011;33747;49.524;8.390;2023-09-19T10:23:29;3.22;;;1.52;;
7338;SDS011;33747;49.524;8.390;2023-09-19T10:25:59;6.63;;;1.80;;
7338;SDS011;33747;49.524;8.390;2023-09-19T10:28:26;6.55;;;1.70;;
7338;SDS011;33747;49.524;8.390;2023-09-19T10:30:53;2.80;;;1.50;;
7338;SDS011;33747;49.524;8.390;2023-09-19T10:33:22;8.38;;;1.85;;
7338;SDS011;33747;49.524;8.390;2023-09-19T10:35:50;5.20;;;2.17;;
7338;SDS011;33747;49.524;8.390;2023-09-19T10:38:19;2.90;;;1.70;;
7338;SDS011;33747;49.524;8.390;2023-09-19T10:40:48;3.80;;;1.60;;
7338;SDS011;33747;49.524;8.390;2023-09-19T10:43:16;2.58;;;1.48;;
7338;SDS011;33747;49.524;8.390;2023-09-19T10:45:46;8.25;;;2.10;;
7338;SDS011;33747;49.524;8.390;2023-09-19T10:48:14;6.63;;;2.15;;
7338;SDS011;33747;49.524;8.390;2023-09-19T10:50:44;6.00;;;2.03;;
7338;SDS011;33747;49.524;8.390;2023-09-19T10:53:14;4.97;;;1.60;;
7338;SDS011;33747;49.524;8.390;2023-09-19T10:55:40;3.53;;;1.52;;
7338;SDS011;33747;49.524;8.390;2023-09-19T10:58:05;4.25;;;1.85;;
7338;SDS011;33747;49.524;8.390;2023-09-19T11:00:58;3.72;;;1.75;;
7338;SDS011;33747;49.524;8.390;2023-09-19T11:03:34;4.72;;;1.67;;
7338;SDS011;33747;49.524;8.390;2023-09-19T11:11:47;5.75;;;1.60;;
7338;SDS011;33747;49.524;8.390;2023-09-19T11:23:09;8.68;;;1.60;;
7338;SDS011;33747;49.524;8.390;2023-09-19T11:36:08;2.58;;;1.35;;
7338;SDS011;33747;49.524;8.390;2023-09-19T11:43:46;3.47;;;1.55;;
7338;SDS011;33747;49.524;8.390;2023-09-19T11:46:23;5.05;;;1.90;;
7338;SDS011;33747;49.524;8.390;2023-09-19T11:48:49;5.47;;;1.58;;
7338;SDS011;33747;49.524;8.390;2023-09-19T11:51:19;5.22;;;1.40;;
7338;SDS011;33747;49.524;8.390;2023-09-19T11:53:57;5.13;;;1.70;;
7338;SDS011;33747;49.524;8.390;2023-09-19T11:58:53;7.10;;;1.80;;
7338;SDS011;33747;49.524;8.390;2023-09-19T12:03:59;3.42;;;1.30;;
7338;SDS011;33747;49.524;8.390;2023-09-19T12:06:25;2.75;;;1.80;;
7338;SDS011;33747;49.524;8.390;2023-09-19T12:08:52;2.25;;;1.52;;
7338;SDS011;33747;49.524;8.390;2023-09-19T12:11:19;4.40;;;1.92;;
7338;SDS011;33747;49.524;8.390;2023-09-19T12:13:47;2.35;;;1.30;;
7338;SDS011;33747;49.524;8.390;2023-09-19T12:18:45;2.92;;;1.50;;
7338;SDS011;33747;49.524;8.390;2023-09-19T12:21:22;4.07;;;1.45;;
7338;SDS011;33747;49.524;8.390;2023-09-19T12:23:58;1.67;;;1.40;;
7338;SDS011;33747;49.524;8.390;2023-09-19T12:26:26;2.95;;;1.38;;
7338;SDS011;33747;49.524;8.390;2023-09-19T12:28:53;3.58;;;1.40;;
7338;SDS011;33747;49.524;8.390;2023-09-19T12:31:19;4.00;;;1.30;;
7338;SDS011;33747;49.524;8.390;2023-09-19T12:33:45;2.00;;;1.40;;
7338;SDS011;33747;49.524;8.390;2023-09-19T12:36:20;4.40;;;1.67;;
7338;SDS011;33747;49.524;8.390;2023-09-19T12:38:53;3.20;;;1.30;;
7338;SDS011;33747;49.524;8.390;2023-09-19T12:41:20;2.70;;;1.20;;
7338;SDS011;33747;49.524;8.390;2023-09-19T12:43:47;3.67;;;1.20;;
7338;SDS011;33747;49.524;8.390;2023-09-19T12:46:12;5.07;;;1.42;;
7338;SDS011;33747;49.524;8.390;2023-09-19T12:48:38;1.95;;;1.10;;
7338;SDS011;33747;49.524;8.390;2023-09-19T12:51:11;5.38;;;1.67;;
7338;SDS011;33747;49.524;8.390;2023-09-19T12:53:38;3.28;;;1.50;;
7338;SDS011;33747;49.524;8.390;2023-09-19T12:56:12;1.83;;;1.40;;
7338;SDS011;33747;49.524;8.390;2023-09-19T13:01:40;3.85;;;1.48;;
7338;SDS011;33747;49.524;8.390;2023-09-19T13:04:14;4.70;;;1.33;;
7338;SDS011;33747;49.524;8.390;2023-09-19T13:06:54;5.18;;;1.55;;
7338;SDS011;33747;49.524;8.390;2023-09-19T13:09:20;3.72;;;1.73;;
7338;SDS011;33747;49.524;8.390;2023-09-19T13:11:47;7.63;;;2.00;;
7338;SDS011;33747;49.524;8.390;2023-09-19T13:19:36;3.30;;;1.50;;
7338;SDS011;33747;49.524;8.390;2023-09-19T13:22:05;3.13;;;1.55;;
7338;SDS011;33747;49.524;8.390;2023-09-19T13:25:15;5.00;;;1.27;;
7338;SDS011;33747;49.524;8.390;2023-09-19T13:27:49;2.72;;;1.13;;
7338;SDS011;33747;49.524;8.390;2023-09-19T13:30:20;3.05;;;1.48;;
7338;SDS011;33747;49.524;8.390;2023-09-19T13:32:47;2.78;;;1.20;;
7338;SDS011;33747;49.524;8.390;2023-09-19T13:35:13;3.47;;;1.30;;
7338;SDS011;33747;49.524;8.390;2023-09-19T13:37:40;6.43;;;1.20;;
7338;SDS011;33747;49.524;8.390;2023-09-19T13:40:13;5.47;;;1.20;;
7338;SDS011;33747;49.524;8.390;2023-09-19T13:42:39;4.82;;;1.40;;
7338;SDS011;33747;49.524;8.390;2023-09-19T13:45:06;1.85;;;1.13;;
7338;SDS011;33747;49.524;8.390;2023-09-19T13:47:32;3.22;;;1.40;;
7338;SDS011;33747;49.524;8.390;2023-09-19T13:49:58;2.45;;;1.20;;
7338;SDS011;33747;49.524;8.390;2023-09-19T13:52:24;3.15;;;1.38;;
7338;SDS011;33747;49.524;8.390;2023-09-19T13:54:53;2.35;;;1.30;;
7338;SDS011;33747;49.524;8.390;2023-09-19T13:57:21;6.45;;;1.30;;
7338;SDS011;33747;49.524;8.390;2023-09-19T13:59:47;3.22;;;1.50;;
7338;SDS011;33747;49.524;8.390;2023-09-19T14:02:12;7.15;;;1.27;;
7338;SDS011;33747;49.524;8.390;2023-09-19T14:04:39;1.55;;;1.10;;
7338;SDS011;33747;49.524;8.390;2023-09-19T14:07:05;2.38;;;1.20;;
7338;SDS011;33747;49.524;8.390;2023-09-19T14:09:32;5.22;;;1.45;;
7338;SDS011;33747;49.524;8.390;2023-09-19T14:11:57;1.52;;;1.30;;
7338;SDS011;33747;49.524;8.390;2023-09-19T14:14:23;4.65;;;1.23;;
7338;SDS011;33747;49.524;8.390;2023-09-19T14:16:48;2.40;;;1.38;;
7338;SDS011;33747;49.524;8.390;2023-09-19T14:19:14;3.00;;;1.33;;
7338;SDS011;33747;49.524;8.390;2023-09-19T14:21:41;2.90;;;1.23;;
7338;SDS011;33747;49.524;8.390;2023-09-19T14:24:07;3.53;;;1.45;;
7338;SDS011;33747;49.524;8.390;2023-09-19T14:26:36;2.33;;;1.10;;
7338;SDS011;33747;49.524;8.390;2023-09-19T14:29:02;2.53;;;1.27;;
7338;SDS011;33747;49.524;8.390;2023-09-19T14:31:27;3.65;;;1.27;;
7338;SDS011;33747;49.524;8.390;2023-09-19T14:33:56;5.88;;;1.02;;
7338;SDS011;33747;49.524;8.390;2023-09-19T14:36:24;1.67;;;1.50;;
7338;SDS011;33747;49.524;8.390;2023-09-19T14:38:51;4.60;;;1.30;;
7338;SDS011;33747;49.524;8.390;2023-09-19T14:41:18;3.33;;;1.40;;
7338;SDS011;33747;49.524;8.390;2023-09-19T14:43:44;1.70;;;1.30;;
7338;SDS011;33747;49.524;8.390;2023-09-19T14:46:09;3.30;;;1.20;;
7338;SDS011;33747;49.524;8.390;2023-09-19T14:48:35;2.28;;;1.00;;
7338;SDS011;33747;49.524;8.390;2023-09-19T14:51:01;3.38;;;1.55;;
7338;SDS011;33747;49.524;8.390;2023-09-19T14:53:30;3.08;;;1.38;;
7338;SDS011;33747;49.524;8.390;2023-09-19T14:55:56;2.25;;;1.15;;
7338;SDS011;33747;49.524;8.390;2023-09-19T14:58:21;2.72;;;1.10;;
7338;SDS011;33747;49.524;8.390;2023-09-19T15:00:47;3.25;;;1.50;;
7338;SDS011;33747;49.524;8.390;2023-09-19T15:03:12;1.95;;;1.20;;
7338;SDS011;33747;49.524;8.390;2023-09-19T15:05:38;3.53;;;1.13;;
7338;SDS011;33747;49.524;8.390;2023-09-19T15:08:04;2.33;;;0.88;;
7338;SDS011;33747;49.524;8.390;2023-09-19T15:10:30;2.75;;;1.38;;
7338;SDS011;33747;49.524;8.390;2023-09-19T15:12:56;3.15;;;1.00;;
7338;SDS011;33747;49.524;8.390;2023-09-19T15:15:21;1.77;;;1.27;;
7338;SDS011;33747;49.524;8.390;2023-09-19T15:17:47;2.92;;;1.15;;
7338;SDS011;33747;49.524;8.390;2023-09-19T15:20:12;5.05;;;1.27;;
7338;SDS011;33747;49.524;8.390;2023-09-19T15:22:38;4.10;;;1.73;;
7338;SDS011;33747;49.524;8.390;2023-09-19T15:25:04;1.50;;;1.05;;
7338;SDS011;33747;49.524;8.390;2023-09-19T15:27:30;4.72;;;1.20;;
7338;SDS011;33747;49.524;8.390;2023-09-19T15:29:57;2.58;;;0.98;;
7338;SDS011;33747;49.524;8.390;2023-09-19T15:32:29;2.03;;;1.05;;
7338;SDS011;33747;49.524;8.390;2023-09-19T15:34:55;2.72;;;1.05;;
7338;SDS011;33747;49.524;8.390;2023-09-19T15:37:20;2.35;;;1.27;;
7338;SDS011;33747;49.524;8.390;2023-09-19T15:39:47;4.85;;;1.00;;
7338;SDS011;33747;49.524;8.390;2023-09-19T15:42:12;2.95;;;0.93;;
7338;SDS011;33747;49.524;8.390;2023-09-19T15:44:38;1.58;;;0.85;;
7338;SDS011;33747;49.524;8.390;2023-09-19T15:47:03;4.20;;;2.78;;
7338;SDS011;33747;49.524;8.390;2023-09-19T15:49:29;2.55;;;1.10;;
7338;SDS011;33747;49.524;8.390;2023-09-19T15:51:55;1.77;;;1.10;;
7338;SDS011;33747;49.524;8.390;2023-09-19T15:54:20;4.07;;;1.02;;
7338;SDS011;33747;49.524;8.390;2023-09-19T15:56:46;2.92;;;1.30;;
7338;SDS011;33747;49.524;8.390;2023-09-19T15:59:13;1.65;;;1.13;;
7338;SDS011;33747;49.524;8.390;2023-09-19T16:01:39;4.60;;;1.20;;
7338;SDS011;33747;49.524;8.390;2023-09-19T16:04:05;5.38;;;1.58;;
7338;SDS011;33747;49.524;8.390;2023-09-19T16:06:33;1.60;;;1.10;;
7338;SDS011;33747;49.524;8.390;2023-09-19T16:08:59;4.78;;;1.00;;
7338;SDS011;33747;49.524;8.390;2023-09-19T16:11:28;1.23;;;1.13;;
7338;SDS011;33747;49.524;8.390;2023-09-19T16:13:54;2.05;;;1.23;;
7338;SDS011;33747;49.524;8.390;2023-09-19T16:16:20;2.30;;;1.38;;
7338;SDS011;33747;49.524;8.390;2023-09-19T16:18:49;1.77;;;1.17;;